Time;durP1;ratioP1;P1;durP2;ratioP2;P2;SDS_P1;SDS_P2;PMS_P1;PMS_P2;Temp;Humidity;BMP_temperature;BMP_pressure;BME280_temperature;BME280_humidity;BME280_pressure;Samples;Min_cycle;Max_cycle;Signal;HPM_P1;HPM_P2
2022/06/13 00:00:08;;;;;;;9.50;4.88;;;19.80;99.90;;;;;;5028528;28;20100;-65
2022/06/13 00:02:36;;;;;;;8.40;4.40;;;19.80;99.90;;;;;;5031383;28;20034;-65
2022/06/13 00:05:06;;;;;;;7.90;5.30;;;19.80;99.90;;;;;;5030594;28;20041;-65
2022/06/13 00:07:34;;;;;;;10.32;5.20;;;19.80;99.90;;;;;;5030868;28;20041;-65
2022/06/13 00:10:02;;;;;;;7.07;4.40;;;19.80;99.90;;;;;;5030887;28;20465;-65
2022/06/13 00:12:29;;;;;;;6.68;4.50;;;19.80;99.90;;;;;;5030784;28;20061;-65
2022/06/13 00:14:57;;;;;;;7.40;5.20;;;19.80;99.90;;;;;;5032719;28;20052;-65
2022/06/13 00:17:25;;;;;;;7.13;4.50;;;19.90;99.90;;;;;;5032658;28;20043;-65
2022/06/13 00:19:52;;;;;;;8.20;5.15;;;19.90;99.90;;;;;;5031165;28;20120;-64
2022/06/13 00:22:19;;;;;;;7.65;4.93;;;19.90;99.90;;;;;;5031000;28;20121;-65
2022/06/13 00:24:47;;;;;;;10.70;5.55;;;19.80;99.90;;;;;;5025316;28;20797;-64
2022/06/13 00:27:15;;;;;;;10.90;6.38;;;19.70;99.90;;;;;;5030135;28;20113;-64
2022/06/13 00:29:44;;;;;;;7.97;4.88;;;19.80;99.90;;;;;;5030587;28;20109;-64
2022/06/13 00:32:11;;;;;;;8.93;4.80;;;19.80;99.90;;;;;;5031142;28;20075;-64
2022/06/13 00:34:39;;;;;;;6.13;4.68;;;19.80;99.90;;;;;;5029501;28;20071;-64
2022/06/13 00:37:06;;;;;;;7.32;4.72;;;19.80;99.90;;;;;;5030699;28;20041;-64
2022/06/13 00:39:34;;;;;;;5.80;4.40;;;19.80;99.90;;;;;;5016684;28;20042;-64
2022/06/13 00:42:03;;;;;;;6.85;4.63;;;19.80;99.90;;;;;;5033728;28;20483;-64
2022/06/13 00:44:34;;;;;;;7.45;4.82;;;19.90;99.90;;;;;;5045318;28;20453;-64
2022/06/13 00:47:02;;;;;;;7.63;4.50;;;19.80;99.90;;;;;;5031085;28;20050;-65
2022/06/13 00:49:32;;;;;;;7.28;4.18;;;19.80;99.90;;;;;;5029595;28;20045;-65
2022/06/13 00:52:17;;;;;;;9.07;4.43;;;19.80;99.90;;;;;;5024904;28;20049;-65
2022/06/13 00:54:47;;;;;;;6.68;3.72;;;19.80;99.90;;;;;;5034943;28;20076;-64
2022/06/13 00:57:23;;;;;;;5.25;3.72;;;19.80;99.90;;;;;;5022916;28;20081;-64
2022/06/13 01:00:01;;;;;;;6.88;3.67;;;19.70;99.90;;;;;;5036825;28;20124;-64
2022/06/13 01:02:29;;;;;;;6.28;3.72;;;19.70;99.90;;;;;;5023441;28;20065;-64
2022/06/13 01:04:58;;;;;;;7.68;3.38;;;19.70;99.90;;;;;;5037720;28;20040;-64
2022/06/13 01:07:28;;;;;;;6.07;3.40;;;19.80;99.90;;;;;;5036221;28;20567;-64
2022/06/13 01:12:42;;;;;;;9.48;3.15;;;19.70;99.90;;;;;;5036896;28;20045;-65
2022/06/13 01:15:35;;;;;;;7.03;3.10;;;19.70;99.90;;;;;;5012064;28;20412;-65
2022/06/13 01:18:26;;;;;;;5.25;3.10;;;19.70;99.90;;;;;;5019075;28;20056;-65
2022/06/13 01:21:06;;;;;;;5.28;2.70;;;19.60;99.90;;;;;;5028116;28;20472;-65
2022/06/13 01:23:50;;;;;;;5.05;2.90;;;19.60;99.90;;;;;;5029181;28;20164;-64
2022/06/13 01:26:57;;;;;;;5.53;2.85;;;19.60;99.90;;;;;;5028439;28;20041;-65
2022/06/13 01:29:57;;;;;;;5.38;2.33;;;19.60;99.90;;;;;;5025757;28;20108;-63
2022/06/13 01:33:12;;;;;;;6.82;2.90;;;19.60;99.90;;;;;;5029047;28;20090;-63
2022/06/13 01:36:06;;;;;;;4.65;2.67;;;19.60;99.90;;;;;;4947630;28;20051;-64
2022/06/13 01:38:56;;;;;;;5.72;3.03;;;19.60;99.90;;;;;;4945823;29;20039;-65
2022/06/13 01:41:53;;;;;;;4.28;2.65;;;19.50;99.90;;;;;;4953504;28;20057;-66
2022/06/13 01:44:39;;;;;;;7.55;2.90;;;19.40;99.90;;;;;;4950331;28;20154;-65
2022/06/13 01:47:14;;;;;;;6.43;2.97;;;19.20;99.90;;;;;;4946593;28;20131;-65
2022/06/13 01:50:00;;;;;;;7.75;3.47;;;19.20;99.90;;;;;;4941915;28;20614;-64
2022/06/13 01:52:54;;;;;;;9.35;2.63;;;19.00;99.90;;;;;;4956111;28;20587;-64
2022/06/13 01:55:24;;;;;;;6.25;3.65;;;19.00;99.90;;;;;;4956417;28;20043;-64
2022/06/13 01:58:17;;;;;;;6.22;2.80;;;18.90;99.90;;;;;;4931633;28;20077;-64
2022/06/13 02:00:58;;;;;;;4.75;2.67;;;18.90;99.90;;;;;;4931561;28;20132;-64
2022/06/13 02:03:41;;;;;;;10.30;3.53;;;18.80;99.90;;;;;;4962557;28;20509;-64
2022/06/13 02:06:18;;;;;;;7.57;3.08;;;18.70;99.90;;;;;;4986901;28;20194;-64
2022/06/13 02:08:58;;;;;;;6.03;2.67;;;18.60;99.90;;;;;;5038180;28;20444;-65
2022/06/13 02:11:36;;;;;;;8.93;3.33;;;18.50;99.90;;;;;;5038189;28;20048;-64
2022/06/13 02:14:24;;;;;;;8.55;2.72;;;18.40;99.90;;;;;;5042554;28;20705;-64
2022/06/13 02:17:19;;;;;;;5.35;2.60;;;18.40;99.90;;;;;;5031617;28;20451;-64
2022/06/13 02:19:52;;;;;;;6.97;2.70;;;18.20;99.90;;;;;;5022514;28;20041;-65
2022/06/13 02:22:19;;;;;;;9.95;3.08;;;18.00;99.90;;;;;;5032807;28;20037;-65
2022/06/13 02:24:52;;;;;;;8.93;2.70;;;17.90;99.90;;;;;;5034690;28;20128;-65
2022/06/13 02:27:22;;;;;;;4.93;2.90;;;17.90;99.90;;;;;;5032355;28;20038;-64
2022/06/13 02:29:56;;;;;;;5.43;2.75;;;17.80;99.90;;;;;;5028377;28;20054;-65
2022/06/13 02:32:33;;;;;;;9.38;3.33;;;17.80;99.90;;;;;;5037335;28;20068;-64
2022/06/13 02:35:08;;;;;;;6.63;2.97;;;17.70;99.90;;;;;;5035807;28;20046;-64
2022/06/13 02:37:39;;;;;;;6.60;3.35;;;17.60;99.90;;;;;;5033286;28;20141;-65
2022/06/13 02:40:25;;;;;;;4.68;2.72;;;17.50;99.90;;;;;;5028217;28;20041;-65
2022/06/13 02:42:55;;;;;;;7.97;3.42;;;17.50;99.90;;;;;;5023861;28;20133;-65
2022/06/13 02:45:30;;;;;;;8.05;3.30;;;17.40;99.90;;;;;;5015343;28;20137;-64
2022/06/13 02:48:14;;;;;;;7.03;3.28;;;17.40;99.90;;;;;;5027511;28;20045;-64
2022/06/13 02:51:11;;;;;;;7.72;3.20;;;17.30;99.90;;;;;;5028635;28;20156;-64
2022/06/13 02:53:44;;;;;;;8.68;3.28;;;17.30;99.90;;;;;;5027631;28;20524;-64
2022/06/13 02:56:23;;;;;;;4.60;2.65;;;17.30;99.90;;;;;;5024619;28;20075;-64
2022/06/13 02:59:18;;;;;;;6.20;3.30;;;17.30;99.90;;;;;;5036699;28;20081;-65
2022/06/13 03:01:49;;;;;;;5.47;2.70;;;17.40;99.90;;;;;;5027171;28;20041;-65
2022/06/13 03:04:31;;;;;;;5.28;2.60;;;17.40;99.90;;;;;;5034717;28;20128;-64
2022/06/13 03:07:23;;;;;;;7.20;3.17;;;17.30;99.90;;;;;;5035007;28;20217;-64
2022/06/13 03:10:02;;;;;;;7.03;2.97;;;17.30;99.90;;;;;;5023455;28;20045;-65
2022/06/13 03:12:51;;;;;;;7.40;3.30;;;17.30;99.90;;;;;;5021793;28;20057;-65
2022/06/13 03:15:40;;;;;;;9.43;3.20;;;17.30;99.90;;;;;;5030213;28;20522;-65
2022/06/13 03:18:26;;;;;;;4.75;2.67;;;17.30;99.90;;;;;;5031160;28;20045;-64
2022/06/13 03:21:04;;;;;;;4.65;2.85;;;17.30;99.90;;;;;;5031601;28;20559;-64
2022/06/13 03:23:57;;;;;;;5.40;2.92;;;17.20;99.90;;;;;;5035459;28;20041;-65
2022/06/13 03:26:33;;;;;;;5.70;3.08;;;17.10;99.90;;;;;;5027477;28;20046;-65
2022/06/13 03:29:16;;;;;;;6.55;3.20;;;17.10;99.90;;;;;;5031383;28;20045;-64
2022/06/13 03:31:54;;;;;;;5.53;2.70;;;17.00;99.90;;;;;;5025727;28;20049;-65
2022/06/13 03:34:31;;;;;;;5.97;2.97;;;17.00;99.90;;;;;;5025348;28;20060;-65
2022/06/13 03:37:19;;;;;;;5.85;2.88;;;17.00;99.90;;;;;;5032962;28;22777;-65
2022/06/13 03:39:55;;;;;;;7.78;2.60;;;16.90;99.90;;;;;;5030841;28;20377;-65
2022/06/13 03:42:50;;;;;;;5.40;2.55;;;16.90;99.90;;;;;;5031477;28;20049;-65
2022/06/13 03:45:42;;;;;;;4.60;2.58;;;16.90;99.90;;;;;;5017825;28;20386;-65
2022/06/13 03:48:17;;;;;;;6.88;2.53;;;16.90;99.90;;;;;;5024916;28;20492;-65
2022/06/13 03:50:50;;;;;;;6.85;2.88;;;16.90;99.90;;;;;;5031526;28;20034;-65
2022/06/13 03:53:21;;;;;;;6.72;2.60;;;16.80;99.90;;;;;;5029670;28;20124;-65
2022/06/13 03:56:05;;;;;;;4.00;2.20;;;16.80;99.90;;;;;;5036489;28;20447;-65
2022/06/13 03:59:05;;;;;;;6.25;2.58;;;16.80;99.90;;;;;;5035042;28;20080;-64
2022/06/13 04:01:39;;;;;;;4.22;2.10;;;16.80;99.90;;;;;;5024127;28;20195;-64
2022/06/13 04:04:17;;;;;;;5.03;2.72;;;16.80;99.90;;;;;;5045854;28;20045;-65
2022/06/13 04:06:45;;;;;;;4.45;2.40;;;16.80;99.90;;;;;;5044006;28;20567;-65
2022/06/13 04:09:15;;;;;;;4.72;2.30;;;16.80;99.90;;;;;;5036841;28;20097;-67
2022/06/13 04:12:20;;;;;;;6.25;2.40;;;16.90;99.90;;;;;;5038264;28;20046;-64
2022/06/13 04:14:48;;;;;;;6.18;2.47;;;16.90;99.90;;;;;;5023289;28;20091;-64
2022/06/13 04:17:52;;;;;;;6.88;2.55;;;16.90;99.90;;;;;;5032826;28;20143;-64
2022/06/13 04:20:30;;;;;;;8.07;2.80;;;16.90;99.90;;;;;;5034626;28;20099;-63
2022/06/13 04:23:08;;;;;;;8.48;3.10;;;17.00;99.90;;;;;;5034488;28;20500;-64
2022/06/13 04:25:38;;;;;;;6.35;2.97;;;17.10;99.90;;;;;;5035568;28;20069;-64
2022/06/13 04:28:13;;;;;;;5.15;2.88;;;17.10;99.90;;;;;;5038979;28;20048;-64
2022/06/13 04:30:43;;;;;;;6.88;2.90;;;17.10;99.90;;;;;;5029932;28;20053;-65
2022/06/13 04:33:19;;;;;;;10.30;3.00;;;17.10;99.90;;;;;;5030476;28;20132;-65
2022/06/13 04:35:48;;;;;;;8.70;3.10;;;17.10;99.90;;;;;;5033829;28;20072;-65
2022/06/13 04:38:19;;;;;;;7.88;3.20;;;17.10;99.90;;;;;;5043160;28;20029;-64
2022/06/13 04:41:02;;;;;;;7.57;3.17;;;17.10;99.90;;;;;;5047986;28;20509;-65
2022/06/13 04:43:40;;;;;;;7.28;2.75;;;17.20;99.90;;;;;;5043997;28;20041;-65
2022/06/13 04:46:17;;;;;;;6.15;3.20;;;17.20;99.90;;;;;;5029718;28;20042;-65
2022/06/13 04:48:48;;;;;;;6.38;2.78;;;17.10;99.90;;;;;;5029997;28;20037;-65
2022/06/13 04:51:30;;;;;;;7.75;2.55;;;17.10;99.90;;;;;;5020871;28;20053;-65
2022/06/13 04:54:25;;;;;;;9.57;2.33;;;17.10;99.90;;;;;;5014350;28;20144;-66
2022/06/13 04:56:58;;;;;;;5.35;2.45;;;17.20;99.90;;;;;;5028453;28;20046;-65
2022/06/13 04:59:26;;;;;;;5.95;2.17;;;17.20;99.90;;;;;;5035066;28;20047;-65
2022/06/13 05:01:55;;;;;;;4.10;2.30;;;17.30;99.90;;;;;;5032493;28;20049;-66
2022/06/13 05:04:27;;;;;;;6.35;2.10;;;17.30;99.90;;;;;;5031673;28;20117;-66
2022/06/13 05:07:11;;;;;;;4.95;2.70;;;17.30;99.90;;;;;;5032631;28;20037;-65
2022/06/13 05:09:43;;;;;;;6.78;2.30;;;17.30;99.90;;;;;;5031464;28;20516;-66
2022/06/13 05:12:32;;;;;;;6.60;2.50;;;17.30;99.90;;;;;;5029219;28;20128;-66
2022/06/13 05:15:09;;;;;;;7.55;2.42;;;17.30;99.90;;;;;;5029599;28;20414;-65
2022/06/13 05:18:01;;;;;;;5.20;2.33;;;17.30;99.90;;;;;;5029627;28;20055;-66
2022/06/13 05:21:00;;;;;;;7.63;2.70;;;17.30;99.90;;;;;;5030062;28;20048;-66
2022/06/13 05:23:57;;;;;;;9.85;2.55;;;17.40;99.90;;;;;;5026210;28;20376;-65
2022/06/13 05:26:29;;;;;;;5.80;2.47;;;17.40;99.90;;;;;;5028705;28;20509;-66
2022/06/13 05:29:00;;;;;;;;;;;17.50;99.90;;;;;;5026455;28;20042;-65
2022/06/13 05:31:29;;;;;;;8.75;2.53;;;17.50;99.90;;;;;;5026440;28;19936;-65
2022/06/13 05:33:58;;;;;;;4.88;1.90;;;17.50;99.90;;;;;;5029731;28;20567;-65
2022/06/13 05:36:27;;;;;;;8.10;2.60;;;17.60;99.90;;;;;;5020710;28;20477;-65
2022/06/13 05:39:00;;;;;;;7.63;2.65;;;17.50;99.90;;;;;;5029830;28;20221;-64
2022/06/13 05:41:29;;;;;;;4.90;2.30;;;17.40;99.90;;;;;;5027960;28;20552;-64
2022/06/13 05:43:56;;;;;;;7.30;2.35;;;17.50;99.90;;;;;;5028331;28;20055;-64
2022/06/13 05:46:29;;;;;;;6.38;2.42;;;17.40;99.90;;;;;;5030015;28;20133;-64
2022/06/13 05:48:57;;;;;;;4.88;2.40;;;17.60;99.90;;;;;;5022646;28;20489;-68
2022/06/13 05:51:24;;;;;;;7.68;2.40;;;17.50;99.90;;;;;;5029388;28;20080;-65
2022/06/13 05:53:53;;;;;;;10.35;2.50;;;17.60;99.90;;;;;;5039475;28;20513;-66
2022/06/13 05:56:20;;;;;;;6.78;2.42;;;17.70;99.90;;;;;;5035570;28;20044;-65
2022/06/13 05:58:48;;;;;;;6.90;2.53;;;17.80;99.90;;;;;;5034599;28;20039;-64
2022/06/13 06:01:15;;;;;;;7.60;2.35;;;17.90;99.90;;;;;;5039364;28;20195;-66
2022/06/13 06:03:45;;;;;;;5.85;2.30;;;18.00;99.90;;;;;;5031874;28;20037;-66
2022/06/13 06:06:24;;;;;;;6.13;2.35;;;18.20;99.90;;;;;;5037617;28;20095;-65
2022/06/13 06:08:55;;;;;;;4.13;2.00;;;18.20;99.90;;;;;;5032357;28;20506;-64
2022/06/13 06:11:24;;;;;;;7.40;2.47;;;18.20;99.90;;;;;;5029040;28;20559;-64
2022/06/13 06:13:52;;;;;;;4.63;2.10;;;18.30;99.90;;;;;;5026339;28;20053;-66
2022/06/13 06:16:23;;;;;;;7.22;2.30;;;18.20;99.90;;;;;;5028783;28;20037;-65
2022/06/13 06:18:51;;;;;;;7.40;2.35;;;18.30;99.90;;;;;;5040573;28;20064;-66
2022/06/13 06:21:18;;;;;;;7.50;2.30;;;18.30;99.90;;;;;;5020178;28;20475;-66
2022/06/13 06:23:46;;;;;;;9.80;2.33;;;18.40;99.90;;;;;;5029317;28;20099;-66
2022/06/13 06:26:21;;;;;;;9.23;2.73;;;18.40;99.90;;;;;;5029949;28;20560;-65
2022/06/13 06:28:50;;;;;;;10.68;2.67;;;18.60;99.90;;;;;;5029900;28;20085;-66
2022/06/13 06:31:18;;;;;;;8.23;2.50;;;18.50;99.90;;;;;;5029038;28;20103;-66
2022/06/13 06:33:46;;;;;;;10.07;2.42;;;18.60;99.90;;;;;;5030086;28;20068;-66
2022/06/13 06:36:14;;;;;;;6.28;2.40;;;18.70;99.90;;;;;;5040590;28;20081;-66
2022/06/13 06:38:42;;;;;;;5.38;2.00;;;18.70;99.90;;;;;;5033274;28;20353;-65
2022/06/13 06:41:09;;;;;;;7.72;2.30;;;18.70;99.90;;;;;;5033984;28;20123;-66
2022/06/13 06:43:36;;;;;;;8.43;2.55;;;18.80;99.90;;;;;;5033497;28;20045;-65
2022/06/13 06:46:04;;;;;;;5.53;2.28;;;18.70;99.90;;;;;;5032799;28;20045;-64
2022/06/13 06:48:32;;;;;;;5.78;2.40;;;18.70;99.90;;;;;;5029437;28;20156;-64
2022/06/13 06:50:59;;;;;;;5.57;2.28;;;18.80;99.90;;;;;;5024460;28;20041;-64
2022/06/13 06:53:27;;;;;;;6.32;2.30;;;18.80;99.90;;;;;;5032696;28;20053;-64
2022/06/13 07:01:28;;;;;;;7.63;2.15;;;18.90;99.90;;;;;;5031690;28;20060;-64
2022/06/13 07:03:55;;;;;;;6.85;2.58;;;19.00;99.90;;;;;;5033104;28;20560;-65
2022/06/13 07:06:23;;;;;;;9.55;2.40;;;19.10;99.90;;;;;;5032958;28;20111;-64
2022/06/13 07:08:50;;;;;;;6.63;2.00;;;19.20;99.90;;;;;;5032160;28;20059;-64
2022/06/13 07:14:09;;;;;;;7.63;2.30;;;19.40;99.90;;;;;;5030594;28;20045;-65
2022/06/13 07:16:36;;;;;;;10.70;2.75;;;19.50;99.90;;;;;;5043082;28;20064;-66
2022/06/13 07:19:03;;;;;;;10.85;2.40;;;19.60;99.90;;;;;;5048513;28;20042;-66
2022/06/13 07:21:31;;;;;;;7.32;2.42;;;19.50;99.90;;;;;;5052045;28;20052;-66
2022/06/13 07:23:58;;;;;;;8.45;2.22;;;19.60;99.90;;;;;;5039430;28;20122;-64
2022/06/13 07:26:25;;;;;;;10.85;2.58;;;19.70;99.90;;;;;;5045702;28;20043;-66
2022/06/13 07:28:55;;;;;;;9.35;2.53;;;19.90;99.90;;;;;;5038823;28;20457;-65
2022/06/13 07:31:35;;;;;;;10.82;2.53;;;20.10;99.90;;;;;;5031361;28;20037;-64
2022/06/13 07:34:03;;;;;;;7.13;2.25;;;20.20;99.90;;;;;;5021228;28;20483;-65
2022/06/13 07:36:31;;;;;;;8.13;2.25;;;20.20;99.90;;;;;;5035816;28;20659;-64
2022/06/13 07:38:58;;;;;;;6.93;2.10;;;20.20;99.90;;;;;;5020903;28;20037;-66
2022/06/13 07:41:26;;;;;;;6.75;2.20;;;20.20;99.90;;;;;;5035679;28;20055;-65
2022/06/13 07:43:55;;;;;;;7.07;2.40;;;20.20;99.90;;;;;;5042144;28;20516;-64
2022/06/13 07:46:30;;;;;;;10.55;2.50;;;20.20;99.90;;;;;;5037330;28;20041;-67
2022/06/13 07:48:58;;;;;;;13.40;2.85;;;20.20;99.90;;;;;;5028507;28;20056;-66
2022/06/13 07:51:27;;;;;;;7.88;2.58;;;20.30;99.90;;;;;;5038420;28;20061;-66
2022/06/13 07:53:54;;;;;;;9.85;2.50;;;20.30;99.90;;;;;;5029749;28;20456;-66
2022/06/13 07:56:27;;;;;;;9.60;2.70;;;20.20;99.90;;;;;;5029727;28;20065;-67
2022/06/13 07:58:55;;;;;;;7.50;2.47;;;20.30;99.90;;;;;;5037654;28;20473;-65
2022/06/13 08:01:24;;;;;;;9.07;2.50;;;20.50;99.90;;;;;;5020480;28;20162;-67
2022/06/13 08:03:52;;;;;;;8.52;2.50;;;20.50;99.90;;;;;;5029311;28;20520;-66
2022/06/13 08:06:21;;;;;;;7.05;2.08;;;20.60;99.90;;;;;;5030009;28;20068;-65
2022/06/13 08:08:49;;;;;;;10.10;3.10;;;20.70;99.90;;;;;;5032731;28;20412;-67
2022/06/13 08:11:30;;;;;;;8.13;2.55;;;20.60;99.90;;;;;;5033261;28;20045;-65
2022/06/13 08:13:58;;;;;;;11.90;3.08;;;20.60;99.90;;;;;;5032690;28;20396;-67
2022/06/13 08:16:25;;;;;;;6.07;2.65;;;20.60;99.90;;;;;;5031381;28;20136;-67
2022/06/13 08:18:53;;;;;;;8.48;2.50;;;20.60;99.90;;;;;;5032663;28;20572;-66
2022/06/13 08:21:23;;;;;;;6.65;2.47;;;20.70;99.90;;;;;;5041355;28;20136;-66
2022/06/13 08:23:51;;;;;;;11.27;3.15;;;20.80;99.90;;;;;;5044888;28;20059;-67
2022/06/13 08:26:18;;;;;;;8.80;2.63;;;21.00;99.90;;;;;;5032334;28;20049;-66
2022/06/13 08:28:46;;;;;;;8.38;2.30;;;21.20;99.90;;;;;;5038596;28;20041;-66
2022/06/13 08:31:17;;;;;;;11.63;2.45;;;21.50;99.90;;;;;;5029604;28;20588;-66
2022/06/13 08:33:44;;;;;;;6.57;2.40;;;21.70;99.90;;;;;;5029613;28;20049;-67
2022/06/13 08:36:12;;;;;;;6.35;2.38;;;21.70;99.90;;;;;;5037968;28;20377;-66
2022/06/13 08:38:40;;;;;;;7.90;2.47;;;21.70;99.90;;;;;;5029099;28;20562;-66
2022/06/13 08:41:10;;;;;;;9.70;2.60;;;21.80;99.90;;;;;;5033556;28;20045;-66
2022/06/13 08:44:06;;;;;;;11.93;2.88;;;21.80;99.90;;;;;;5028764;28;20072;-66
2022/06/13 08:46:58;;;;;;;6.97;2.40;;;21.90;99.90;;;;;;5032697;28;20489;-67
2022/06/13 08:50:07;;;;;;;6.40;2.53;;;22.20;99.90;;;;;;5033497;28;20099;-66
2022/06/13 08:52:42;;;;;;;10.18;2.53;;;22.30;99.90;;;;;;5016748;28;20053;-66
2022/06/13 08:55:17;;;;;;;9.38;2.67;;;22.20;99.90;;;;;;5011485;28;20583;-66
2022/06/13 08:58:05;;;;;;;9.82;2.10;;;22.10;99.90;;;;;;5028818;28;20063;-66
2022/06/13 09:00:34;;;;;;;7.30;2.40;;;22.10;99.90;;;;;;5020732;28;20088;-66
2022/06/13 09:03:11;;;;;;;10.77;3.08;;;22.10;99.90;;;;;;5022235;28;20492;-66
2022/06/13 09:06:07;;;;;;;8.63;2.47;;;22.30;99.90;;;;;;5020496;28;20578;-67
2022/06/13 09:08:49;;;;;;;9.90;2.60;;;22.40;99.90;;;;;;5028938;28;20497;-66
2022/06/13 09:11:25;;;;;;;7.32;2.35;;;22.30;99.90;;;;;;5027098;28;20064;-67
2022/06/13 09:13:58;;;;;;;8.45;2.33;;;22.20;99.90;;;;;;5014346;28;20501;-67
2022/06/13 09:16:34;;;;;;;6.57;2.30;;;22.30;99.90;;;;;;5017796;28;20096;-66
2022/06/13 09:19:25;;;;;;;10.80;2.47;;;22.20;99.90;;;;;;5027995;28;20065;-67
2022/06/13 09:22:31;;;;;;;6.20;2.20;;;22.00;99.90;;;;;;5019912;28;20046;-67
2022/06/13 09:25:13;;;;;;;5.88;2.50;;;22.20;99.90;;;;;;4992069;28;20059;-67
2022/06/13 09:27:49;;;;;;;9.43;2.65;;;22.40;99.90;;;;;;5002605;28;20181;-66
2022/06/13 09:30:23;;;;;;;6.30;2.40;;;22.70;99.90;;;;;;4998622;28;20054;-66
2022/06/13 09:32:56;;;;;;;8.52;3.22;;;22.70;99.90;;;;;;5001407;28;20060;-67
2022/06/13 09:35:24;;;;;;;8.50;2.58;;;22.50;99.90;;;;;;5006694;28;20058;-67
2022/06/13 09:38:03;;;;;;;10.02;2.50;;;22.00;99.90;;;;;;5007972;28;20054;-66
2022/06/13 09:40:51;;;;;;;7.05;2.40;;;22.20;99.90;;;;;;4986976;28;20403;-67
2022/06/13 09:43:24;;;;;;;6.75;2.38;;;22.00;99.90;;;;;;4998983;28;20137;-65
2022/06/13 09:45:59;;;;;;;9.95;2.58;;;22.00;99.90;;;;;;5004095;28;20132;-67
2022/06/13 09:48:28;;;;;;;7.65;2.60;;;22.10;99.90;;;;;;4998753;28;20129;-67
2022/06/13 09:51:23;;;;;;;8.77;2.70;;;21.90;99.90;;;;;;4997826;28;20112;-67
2022/06/13 09:54:02;;;;;;;7.20;2.42;;;21.80;99.90;;;;;;5001092;28;20516;-68
2022/06/13 09:56:35;;;;;;;8.85;2.15;;;21.90;99.90;;;;;;4993002;28;20042;-67
2022/06/13 09:59:08;;;;;;;6.13;1.75;;;21.90;99.90;;;;;;5017738;28;20041;-67
2022/06/13 10:02:14;;;;;;;8.48;2.20;;;21.90;99.90;;;;;;5030767;28;20073;-66
2022/06/13 10:04:54;;;;;;;8.80;2.80;;;22.10;99.90;;;;;;5031479;28;20598;-66
2022/06/13 10:07:30;;;;;;;5.63;2.10;;;22.40;99.90;;;;;;5029422;28;20037;-65
2022/06/13 10:10:32;;;;;;;7.55;2.58;;;22.20;99.90;;;;;;5034076;28;20481;-66
2022/06/13 10:13:25;;;;;;;6.97;2.13;;;22.10;99.90;;;;;;5025684;28;20064;-64
2022/06/13 10:16:29;;;;;;;7.03;2.10;;;22.10;99.90;;;;;;5039708;28;20519;-66
2022/06/13 10:19:39;;;;;;;6.53;2.10;;;22.20;99.90;;;;;;5042212;28;20059;-67
2022/06/13 10:22:10;;;;;;;7.18;2.03;;;22.40;99.90;;;;;;5014823;28;20416;-67
2022/06/13 10:24:47;;;;;;;6.47;2.20;;;22.60;99.90;;;;;;5041215;28;20550;-66
2022/06/13 10:27:26;;;;;;;9.15;2.20;;;22.50;99.90;;;;;;5024607;28;20045;-66
2022/06/13 10:30:10;;;;;;;5.18;2.10;;;22.30;99.90;;;;;;5022296;28;20049;-66
2022/06/13 10:33:16;;;;;;;6.78;2.35;;;22.30;99.90;;;;;;5017754;28;20049;-66
2022/06/13 10:36:01;;;;;;;6.28;1.88;;;22.30;99.90;;;;;;5028219;28;20056;-65
2022/06/13 10:38:57;;;;;;;7.72;1.95;;;22.30;99.90;;;;;;5028107;28;20052;-67
2022/06/13 10:41:28;;;;;;;8.48;2.10;;;22.50;99.90;;;;;;5020594;28;20156;-67
2022/06/13 10:43:58;;;;;;;7.05;1.88;;;22.90;99.90;;;;;;5028096;28;20099;-67
2022/06/13 10:46:25;;;;;;;5.07;1.90;;;23.10;99.90;;;;;;5025980;28;20143;-67
2022/06/13 10:49:11;;;;;;;5.05;2.05;;;23.00;99.50;;;;;;5032969;28;20053;-65
2022/06/13 10:51:41;;;;;;;12.52;2.42;;;23.10;99.90;;;;;;5023826;28;20065;-67
2022/06/13 10:54:23;;;;;;;4.43;1.90;;;23.10;99.90;;;;;;5042892;28;20080;-67
2022/06/13 10:56:56;;;;;;;6.40;2.15;;;23.00;99.90;;;;;;5042179;28;20153;-66
2022/06/13 10:59:30;;;;;;;8.68;2.30;;;23.60;99.90;;;;;;5041081;28;20072;-65
2022/06/13 11:02:24;;;;;;;5.63;1.80;;;24.00;98.90;;;;;;5026508;28;20124;-67
2022/06/13 11:05:04;;;;;;;5.05;1.88;;;23.90;97.30;;;;;;5027730;28;20045;-67
2022/06/13 11:07:35;;;;;;;6.40;1.92;;;23.30;97.60;;;;;;5026998;28;20179;-67
2022/06/13 11:10:03;;;;;;;7.27;1.93;;;23.00;97.90;;;;;;5038176;28;20045;-67
2022/06/13 11:12:33;;;;;;;5.07;1.92;;;23.10;98.40;;;;;;5031487;28;20052;-66
2022/06/13 11:23:43;;;;;;;4.35;1.60;;;22.50;98.60;;;;;;5033116;28;20417;-66
2022/06/13 11:28:58;;;;;;;4.10;1.67;;;23.20;95.50;;;;;;5035483;28;20437;-67
2022/06/13 11:31:28;;;;;;;6.95;2.17;;;23.60;94.90;;;;;;5027312;28;20400;-67
2022/06/13 11:33:56;;;;;;;7.50;1.98;;;23.60;95.30;;;;;;5033994;28;20124;-67
2022/06/13 11:36:28;;;;;;;6.32;1.67;;;23.40;95.70;;;;;;5034214;28;20500;-67
2022/06/13 11:39:02;;;;;;;6.38;1.70;;;23.60;94.90;;;;;;5040182;28;20416;-66
2022/06/13 11:41:43;;;;;;;4.43;1.33;;;23.70;93.70;;;;;;5041476;28;20045;-66
2022/06/13 11:44:17;;;;;;;4.93;1.27;;;23.80;90.30;;;;;;5042139;28;20037;-66
2022/06/13 11:47:05;;;;;;;5.45;1.52;;;23.50;90.90;;;;;;5039449;28;20042;-64
2022/06/13 11:49:39;;;;;;;5.35;1.75;;;23.40;91.20;;;;;;5030440;28;20064;-66
2022/06/13 11:52:10;;;;;;;3.42;1.60;;;23.90;91.80;;;;;;5029029;28;20518;-66
2022/06/13 11:54:40;;;;;;;7.00;1.77;;;23.40;91.70;;;;;;5039194;28;20107;-67
2022/06/13 11:57:25;;;;;;;4.05;1.70;;;23.70;92.60;;;;;;5030785;28;20048;-65
2022/06/13 12:00:18;;;;;;;3.95;1.40;;;23.40;92.60;;;;;;5038405;28;20065;-66
2022/06/13 12:03:00;;;;;;;5.88;1.40;;;23.70;91.20;;;;;;5021217;28;20357;-68
2022/06/13 12:05:32;;;;;;;6.22;1.70;;;23.60;91.20;;;;;;5027302;28;20586;-66
2022/06/13 12:08:02;;;;;;;;;;;23.90;91.10;;;;;;5039096;28;20049;-68
2022/06/13 12:10:37;;;;;;;3.92;1.60;;;24.20;90.20;;;;;;5038940;28;20261;-66
2022/06/13 12:13:16;;;;;;;4.35;1.42;;;24.40;90.00;;;;;;5033306;28;20513;-66
2022/06/13 12:15:50;;;;;;;6.63;1.55;;;24.50;86.60;;;;;;5038481;28;20041;-67
2022/06/13 12:18:33;;;;;;;4.53;1.45;;;24.30;84.80;;;;;;5034227;28;20092;-68
2022/06/13 12:21:18;;;;;;;4.03;1.40;;;24.20;83.80;;;;;;5032802;28;20049;-69
2022/06/13 12:23:47;;;;;;;5.13;1.67;;;24.70;84.30;;;;;;5037284;28;20381;-66
2022/06/13 12:26:31;;;;;;;5.00;1.65;;;24.80;83.20;;;;;;5036400;28;20556;-65
2022/06/13 12:29:12;;;;;;;4.13;1.30;;;24.40;84.60;;;;;;5027158;28;20521;-67
2022/06/13 12:31:53;;;;;;;4.78;1.33;;;24.00;85.40;;;;;;5029834;28;20512;-69
2022/06/13 12:34:35;;;;;;;3.20;1.48;;;24.20;84.00;;;;;;5042489;28;20033;-67
2022/06/13 12:37:41;;;;;;;4.60;1.35;;;24.30;84.00;;;;;;5036991;28;20048;-68
2022/06/13 12:40:41;;;;;;;5.47;1.42;;;24.70;82.60;;;;;;5030570;28;20105;-67
2022/06/13 12:43:36;;;;;;;4.70;1.40;;;25.50;80.90;;;;;;5044647;28;20577;-67
2022/06/13 12:46:22;;;;;;;7.57;1.70;;;24.70;84.00;;;;;;5024831;28;20112;-67
2022/06/13 12:49:01;;;;;;;4.43;1.50;;;24.30;85.30;;;;;;5031358;28;20130;-66
2022/06/13 12:51:43;;;;;;;5.03;1.70;;;24.40;82.30;;;;;;5004244;28;20042;-64
2022/06/13 12:54:23;;;;;;;;;;;25.30;81.90;;;;;;5026806;28;20073;-65
2022/06/13 12:57:23;;;;;;;4.32;1.65;;;25.20;81.20;;;;;;5046981;28;19951;-68
2022/06/13 13:00:25;;;;;;;4.82;1.75;;;24.60;82.80;;;;;;5048597;28;20488;-67
2022/06/13 13:02:53;;;;;;;3.42;1.27;;;24.20;84.60;;;;;;5022655;28;20489;-66
2022/06/13 13:05:31;;;;;;;3.33;1.55;;;24.20;85.00;;;;;;5029068;28;20034;-66
2022/06/13 13:08:14;;;;;;;4.93;1.58;;;25.00;81.40;;;;;;5045202;28;20041;-65
2022/06/13 13:11:28;;;;;;;4.22;1.77;;;25.70;81.70;;;;;;5043616;28;20041;-66
2022/06/13 13:14:11;;;;;;;5.00;1.40;;;26.00;79.30;;;;;;5025360;28;20049;-68
2022/06/13 13:16:51;;;;;;;6.18;1.60;;;26.30;80.90;;;;;;5029563;28;20041;-68
2022/06/13 13:19:24;;;;;;;9.32;1.70;;;26.80;79.80;;;;;;5031003;28;20045;-67
2022/06/13 13:22:12;;;;;;;3.30;1.45;;;27.20;78.80;;;;;;5031763;28;20493;-66
2022/06/13 13:25:04;;;;;;;3.97;1.58;;;27.80;77.00;;;;;;5031475;28;20552;-67
2022/06/13 13:28:00;;;;;;;5.63;1.30;;;26.00;78.60;;;;;;5039609;28;20033;-64
2022/06/13 13:30:42;;;;;;;8.00;1.95;;;25.10;78.10;;;;;;5014471;28;20050;-66
2022/06/13 13:33:49;;;;;;;3.88;1.80;;;24.60;79.90;;;;;;5026632;28;20044;-66
2022/06/13 13:36:54;;;;;;;4.93;1.73;;;24.70;81.10;;;;;;5028527;28;20114;-66
2022/06/13 13:39:35;;;;;;;5.03;1.70;;;24.40;81.90;;;;;;5010165;28;20596;-66
2022/06/13 13:42:18;;;;;;;7.35;1.80;;;24.00;83.00;;;;;;5019029;28;20626;-66
2022/06/13 13:44:54;;;;;;;6.68;1.67;;;23.90;84.30;;;;;;5020137;28;20077;-65
2022/06/13 13:47:22;;;;;;;4.35;1.52;;;24.30;83.60;;;;;;5016935;28;20473;-66
2022/06/13 13:50:02;;;;;;;6.93;1.60;;;25.30;81.80;;;;;;5007509;28;20080;-68
2022/06/13 13:52:35;;;;;;;7.45;2.15;;;26.80;79.20;;;;;;5023975;28;20141;-67
2022/06/13 13:55:40;;;;;;;4.80;1.67;;;26.50;78.00;;;;;;5024695;28;20511;-66
2022/06/13 13:58:18;;;;;;;4.93;1.80;;;25.90;79.40;;;;;;4970878;28;20084;-66
2022/06/13 14:01:20;;;;;;;5.88;1.90;;;24.90;80.50;;;;;;5017846;28;20584;-65
2022/06/13 14:04:15;;;;;;;7.07;1.73;;;24.60;81.80;;;;;;5010205;28;20475;-66